Time;durP1;ratioP1;P1;durP2;ratioP2;P2;SDS_P1;SDS_P2;PMS_P1;PMS_P2;Temp;Humidity;BMP_temperature;BMP_pressure;BME280_temperature;BME280_humidity;BME280_pressure;Samples;Min_cycle;Max_cycle;Signal;HPM_P1;HPM_P2
2021/10/23 00:01:40;;;;;;;4.30;0.70;;;10.70;99.90;;;;;;5052518;28;20025;-63
2021/10/23 00:04:05;;;;;;;1.92;0.70;;;10.70;99.90;;;;;;5054211;28;20374;-63
2021/10/23 00:06:31;;;;;;;9.45;1.02;;;10.60;99.90;;;;;;5053506;28;20033;-66
2021/10/23 00:08:56;;;;;;;7.75;1.15;;;10.70;99.90;;;;;;5054213;28;20021;-61
2021/10/23 00:11:22;;;;;;;4.28;0.73;;;10.70;99.90;;;;;;5053846;28;20029;-62
2021/10/23 00:13:48;;;;;;;1.23;0.63;;;10.70;99.90;;;;;;5053326;28;20433;-62
2021/10/23 00:16:13;;;;;;;7.05;1.05;;;10.60;99.90;;;;;;5054390;28;20032;-62
2021/10/23 00:18:39;;;;;;;3.83;0.80;;;10.60;99.90;;;;;;5053691;28;20459;-62
2021/10/23 00:21:05;;;;;;;3.78;0.93;;;10.60;99.90;;;;;;5052756;28;20355;-62
2021/10/23 00:23:31;;;;;;;2.65;0.82;;;10.60;99.90;;;;;;5053676;28;20379;-61
2021/10/23 00:25:57;;;;;;;2.65;0.65;;;10.60;99.90;;;;;;5052189;28;20064;-61
2021/10/23 00:28:22;;;;;;;4.53;1.00;;;10.60;99.90;;;;;;5053946;28;20037;-61
2021/10/23 00:30:48;;;;;;;5.10;1.08;;;10.50;99.90;;;;;;5053309;28;20021;-61
2021/10/23 00:33:14;;;;;;;3.17;0.85;;;10.50;99.90;;;;;;5053442;28;20107;-61
2021/10/23 00:35:39;;;;;;;3.40;0.75;;;10.60;99.90;;;;;;5051596;28;20025;-61
2021/10/23 00:38:05;;;;;;;5.20;1.00;;;10.50;99.90;;;;;;5053776;28;20132;-62
2021/10/23 00:40:32;;;;;;;4.82;1.02;;;10.60;99.90;;;;;;5053710;28;20108;-62
2021/10/23 00:42:59;;;;;;;1.77;0.57;;;10.60;99.90;;;;;;5053485;28;20025;-61
2021/10/23 00:45:25;;;;;;;2.22;0.63;;;10.60;99.90;;;;;;5053690;28;20063;-61
2021/10/23 00:47:51;;;;;;;2.40;0.95;;;10.50;99.90;;;;;;5052814;28;20029;-62
2021/10/23 00:50:18;;;;;;;4.07;0.80;;;10.50;99.90;;;;;;5053559;28;20429;-62
2021/10/23 00:52:44;;;;;;;3.47;0.70;;;10.50;99.90;;;;;;5052806;28;20467;-62
2021/10/23 00:55:10;;;;;;;3.85;0.80;;;10.50;99.90;;;;;;5053152;28;20140;-61
2021/10/23 00:57:38;;;;;;;5.20;1.00;;;10.50;99.90;;;;;;5052669;28;20025;-62
2021/10/23 01:00:05;;;;;;;5.15;1.00;;;10.60;99.90;;;;;;5053520;28;20399;-62
2021/10/23 01:02:31;;;;;;;4.65;0.90;;;10.50;99.90;;;;;;5053442;28;20036;-62
2021/10/23 01:04:57;;;;;;;3.75;0.77;;;10.50;99.90;;;;;;5052556;28;20025;-62
2021/10/23 01:07:23;;;;;;;2.75;0.90;;;10.50;99.90;;;;;;5052899;28;20056;-61
2021/10/23 01:09:49;;;;;;;3.13;1.08;;;10.50;99.90;;;;;;5052375;28;20021;-60
2021/10/23 01:12:15;;;;;;;8.05;1.60;;;10.60;99.90;;;;;;5035356;28;20029;-61
2021/10/23 01:14:43;;;;;;;3.70;0.77;;;10.50;99.90;;;;;;5051125;28;20029;-61
2021/10/23 01:17:09;;;;;;;3.28;1.00;;;10.40;99.90;;;;;;5053283;28;20104;-62
2021/10/23 01:19:35;;;;;;;3.92;0.80;;;10.40;99.90;;;;;;5052421;28;20542;-75
2021/10/23 01:22:01;;;;;;;3.45;1.02;;;10.40;99.90;;;;;;5053341;28;20025;-63
2021/10/23 01:24:28;;;;;;;3.58;0.70;;;10.40;99.90;;;;;;5051356;28;20043;-62
2021/10/23 01:26:54;;;;;;;6.25;0.93;;;10.30;99.90;;;;;;5052216;28;20049;-62
2021/10/23 01:29:21;;;;;;;2.92;0.77;;;10.30;99.90;;;;;;5051438;28;20032;-62
2021/10/23 01:31:48;;;;;;;8.52;1.48;;;10.30;99.90;;;;;;5052108;28;20032;-61
2021/10/23 01:34:18;;;;;;;5.10;1.02;;;10.40;99.90;;;;;;5051360;28;20120;-61
2021/10/23 01:36:55;;;;;;;5.38;1.33;;;10.30;99.90;;;;;;5050771;28;20029;-62
2021/10/23 01:39:23;;;;;;;9.90;1.80;;;10.30;99.90;;;;;;5052485;28;20103;-62
2021/10/23 01:41:49;;;;;;;4.05;1.25;;;10.30;99.90;;;;;;5051954;28;20021;-62
2021/10/23 01:44:16;;;;;;;3.47;0.90;;;10.30;99.90;;;;;;5051238;28;20524;-61
2021/10/23 01:46:43;;;;;;;3.20;0.93;;;10.40;99.90;;;;;;5051637;28;20024;-62
2021/10/23 01:49:09;;;;;;;4.50;1.42;;;10.30;99.90;;;;;;5052568;28;20315;-61
2021/10/23 01:51:35;;;;;;;5.28;0.80;;;10.30;99.90;;;;;;5052691;28;20037;-61
2021/10/23 01:54:06;;;;;;;4.75;0.77;;;10.30;99.90;;;;;;5050607;28;20075;-62
2021/10/23 01:56:34;;;;;;;3.30;0.87;;;10.40;99.90;;;;;;5052478;28;20048;-61
2021/10/23 01:59:00;;;;;;;5.13;1.20;;;10.40;99.90;;;;;;5050150;28;20115;-61
2021/10/23 02:01:26;;;;;;;3.60;1.00;;;10.50;99.90;;;;;;5050496;28;20474;-61
2021/10/23 02:03:52;;;;;;;4.55;1.27;;;10.40;99.90;;;;;;5051306;28;20040;-61
2021/10/23 02:06:18;;;;;;;8.02;1.15;;;10.40;99.90;;;;;;5052116;28;20025;-61
2021/10/23 02:08:43;;;;;;;4.63;0.70;;;10.40;99.90;;;;;;5051457;28;20025;-61
2021/10/23 02:11:09;;;;;;;4.47;1.17;;;10.40;99.90;;;;;;5051872;28;20070;-62
2021/10/23 02:13:35;;;;;;;3.50;1.25;;;10.40;99.90;;;;;;5052146;28;20122;-61
2021/10/23 02:16:00;;;;;;;6.60;1.67;;;10.40;99.90;;;;;;5051358;28;20035;-61
2021/10/23 02:18:27;;;;;;;3.78;1.08;;;10.40;99.90;;;;;;5051925;28;20037;-62
2021/10/23 02:20:53;;;;;;;4.85;1.33;;;10.40;99.90;;;;;;5048193;28;20363;-62
2021/10/23 02:23:19;;;;;;;2.63;1.00;;;10.40;99.90;;;;;;5045029;28;20017;-61
2021/10/23 02:25:45;;;;;;;3.15;1.10;;;10.40;99.90;;;;;;5030998;28;20032;-61
2021/10/23 02:28:10;;;;;;;6.47;0.98;;;10.40;99.90;;;;;;5031286;28;20052;-61
2021/10/23 02:30:36;;;;;;;3.08;1.00;;;10.30;99.90;;;;;;5030400;28;20037;-61
2021/10/23 02:33:02;;;;;;;3.30;0.70;;;10.30;99.90;;;;;;5031306;28;20141;-61
2021/10/23 02:35:27;;;;;;;3.28;1.00;;;10.30;99.90;;;;;;5031240;28;20034;-61
2021/10/23 02:37:53;;;;;;;2.65;0.70;;;10.30;99.90;;;;;;5030959;28;20036;-61
2021/10/23 02:40:19;;;;;;;4.97;1.02;;;10.30;99.90;;;;;;5031551;28;20052;-61
2021/10/23 02:42:44;;;;;;;9.25;1.60;;;10.40;99.90;;;;;;5030915;28;20028;-62
2021/10/23 02:45:10;;;;;;;6.47;1.50;;;10.30;99.90;;;;;;5030276;28;20033;-61
2021/10/23 02:47:36;;;;;;;3.42;1.20;;;10.20;99.90;;;;;;5029747;28;20400;-60
2021/10/23 02:50:04;;;;;;;7.55;1.25;;;10.20;99.90;;;;;;5062798;28;20464;-61
2021/10/23 02:52:30;;;;;;;4.28;1.20;;;10.20;99.90;;;;;;5031197;28;20040;-62
2021/10/23 02:54:55;;;;;;;6.13;0.82;;;10.20;99.90;;;;;;5030559;28;20033;-61
2021/10/23 02:57:21;;;;;;;8.13;1.40;;;10.10;99.90;;;;;;5029653;28;20029;-61
2021/10/23 02:59:47;;;;;;;5.93;1.10;;;10.10;99.90;;;;;;5029272;28;20068;-61
2021/10/23 03:02:12;;;;;;;6.82;0.98;;;10.10;99.90;;;;;;5029834;28;20033;-61
2021/10/23 03:04:38;;;;;;;4.85;1.10;;;10.20;99.90;;;;;;5029656;28;20029;-62
2021/10/23 03:07:03;;;;;;;4.45;1.15;;;10.20;99.90;;;;;;5030938;28;20424;-62
2021/10/23 03:09:29;;;;;;;4.65;1.38;;;10.20;99.90;;;;;;5031476;28;20464;-63
2021/10/23 03:11:55;;;;;;;4.55;1.58;;;10.20;99.90;;;;;;5030752;28;20075;-62
2021/10/23 03:14:21;;;;;;;5.05;1.25;;;10.20;99.90;;;;;;5031227;28;20067;-61
2021/10/23 03:16:46;;;;;;;6.70;1.88;;;10.20;99.90;;;;;;5030354;28;20029;-61
2021/10/23 03:19:12;;;;;;;4.38;1.30;;;10.10;99.90;;;;;;5029797;28;20116;-61
2021/10/23 03:21:37;;;;;;;5.45;0.80;;;10.10;99.90;;;;;;5029739;28;20425;-61
2021/10/23 03:24:03;;;;;;;3.38;1.40;;;10.20;99.90;;;;;;5029128;28;20136;-61
2021/10/23 03:26:29;;;;;;;5.95;1.80;;;10.10;99.90;;;;;;5062642;28;20384;-62
2021/10/23 03:28:56;;;;;;;4.63;1.17;;;10.20;99.90;;;;;;5030401;28;20029;-61
2021/10/23 03:31:22;;;;;;;6.10;1.20;;;10.20;99.90;;;;;;5029244;28;20030;-61
2021/10/23 03:33:48;;;;;;;3.50;1.38;;;10.20;99.90;;;;;;5032823;28;20032;-62
2021/10/23 03:36:13;;;;;;;4.72;0.88;;;10.20;99.90;;;;;;5033575;28;20030;-62
2021/10/23 03:38:39;;;;;;;3.05;0.90;;;10.20;99.90;;;;;;5034875;28;20029;-62
2021/10/23 03:41:05;;;;;;;2.67;1.45;;;10.20;99.90;;;;;;5049628;28;20030;-62
2021/10/23 03:43:30;;;;;;;4.10;1.35;;;10.20;99.90;;;;;;5035052;28;20374;-62
2021/10/23 03:45:56;;;;;;;5.43;1.40;;;10.20;99.90;;;;;;5034435;28;20029;-62
2021/10/23 03:48:22;;;;;;;4.65;1.15;;;10.30;99.90;;;;;;5035058;28;20030;-62
2021/10/23 03:50:48;;;;;;;3.13;1.38;;;10.30;99.90;;;;;;5034216;28;20025;-62
2021/10/23 03:53:13;;;;;;;4.35;1.30;;;10.30;99.90;;;;;;5035637;28;20033;-61
2021/10/23 03:55:39;;;;;;;4.75;1.48;;;10.30;99.90;;;;;;5034407;28;20025;-61
2021/10/23 03:58:05;;;;;;;4.53;1.33;;;10.30;99.90;;;;;;5032752;28;20037;-60
2021/10/23 04:00:31;;;;;;;5.03;1.38;;;10.30;99.90;;;;;;5034746;28;20064;-61
2021/10/23 04:02:57;;;;;;;8.07;1.55;;;10.30;99.90;;;;;;5033624;28;20441;-62
2021/10/23 04:05:23;;;;;;;4.15;1.88;;;10.30;99.90;;;;;;5034555;28;20025;-62
2021/10/23 04:07:49;;;;;;;3.53;1.40;;;10.30;99.90;;;;;;5034059;28;20026;-61
2021/10/23 04:10:15;;;;;;;6.00;1.17;;;10.30;99.90;;;;;;5033127;28;20379;-61
2021/10/23 04:12:40;;;;;;;9.27;1.65;;;10.20;99.90;;;;;;5034438;28;20037;-61
2021/10/23 04:15:06;;;;;;;2.13;1.15;;;10.30;99.90;;;;;;5032456;28;20025;-61
2021/10/23 04:17:32;;;;;;;6.97;1.10;;;10.30;99.90;;;;;;5034172;28;20037;-61
2021/10/23 04:19:58;;;;;;;4.07;1.20;;;10.20;99.90;;;;;;5033542;28;20032;-61
2021/10/23 04:22:23;;;;;;;4.05;1.50;;;10.30;99.90;;;;;;5034287;28;20463;-61
2021/10/23 04:24:51;;;;;;;4.53;2.70;;;10.20;99.90;;;;;;5033475;28;20059;-62
2021/10/23 04:27:17;;;;;;;7.38;1.60;;;10.20;99.90;;;;;;5031491;28;20184;-61
2021/10/23 04:29:43;;;;;;;7.00;1.23;;;10.20;99.90;;;;;;5032757;28;20498;-61
2021/10/23 04:32:09;;;;;;;3.45;1.58;;;10.10;99.90;;;;;;5030957;28;20026;-62
2021/10/23 04:34:36;;;;;;;4.65;1.75;;;10.00;99.90;;;;;;5032424;28;20029;-61
2021/10/23 04:37:03;;;;;;;4.80;1.33;;;10.00;99.90;;;;;;5032371;28;20025;-61
2021/10/23 04:39:28;;;;;;;3.13;1.40;;;10.10;99.90;;;;;;5033146;28;20030;-62
2021/10/23 04:41:55;;;;;;;3.45;1.40;;;9.90;99.90;;;;;;5032024;28;20128;-62
2021/10/23 04:44:21;;;;;;;7.30;1.70;;;9.90;99.90;;;;;;5032321;28;20026;-61
2021/10/23 04:46:47;;;;;;;5.95;1.73;;;9.90;99.90;;;;;;5032998;28;20044;-76
2021/10/23 04:49:13;;;;;;;3.80;1.80;;;9.80;99.90;;;;;;5032372;28;20420;-61
2021/10/23 04:51:39;;;;;;;8.65;2.13;;;9.80;99.90;;;;;;5064484;28;20048;-61
2021/10/23 04:54:05;;;;;;;5.15;1.75;;;9.70;99.90;;;;;;5032396;28;20075;-61
2021/10/23 04:56:30;;;;;;;11.15;2.30;;;9.70;99.90;;;;;;5031965;28;20029;-61
2021/10/23 04:58:56;;;;;;;7.85;2.00;;;9.70;99.90;;;;;;5031481;28;20447;-61
2021/10/23 05:01:22;;;;;;;7.63;2.80;;;9.80;99.90;;;;;;5032192;28;20040;-61
2021/10/23 05:03:49;;;;;;;5.00;2.20;;;9.70;99.90;;;;;;5032686;28;20033;-78
2021/10/23 05:06:14;;;;;;;3.20;1.52;;;9.50;99.90;;;;;;5031150;28;20033;-62
2021/10/23 05:08:41;;;;;;;5.50;1.95;;;9.40;99.90;;;;;;5032686;28;20022;-61
2021/10/23 05:11:07;;;;;;;4.75;1.90;;;9.40;99.90;;;;;;5031915;28;20025;-62
2021/10/23 05:13:33;;;;;;;7.93;3.47;;;9.40;99.90;;;;;;5032193;28;20423;-62
2021/10/23 05:15:59;;;;;;;5.22;2.70;;;9.50;99.90;;;;;;5030268;28;20029;-62
2021/10/23 05:18:24;;;;;;;5.80;1.65;;;9.40;99.90;;;;;;5032038;28;20138;-62
2021/10/23 05:20:50;;;;;;;2.97;1.80;;;9.40;99.90;;;;;;5031319;28;20022;-63
2021/10/23 05:23:16;;;;;;;6.35;1.85;;;9.40;99.90;;;;;;5032121;28;20416;-62
2021/10/23 05:25:42;;;;;;;3.55;1.67;;;9.30;99.90;;;;;;4991598;28;1153761;-62
2021/10/23 05:28:07;;;;;;;6.38;2.88;;;9.20;99.90;;;;;;5032493;28;20029;-62
2021/10/23 05:30:33;;;;;;;2.97;1.90;;;9.20;99.90;;;;;;5032637;28;20041;-62
2021/10/23 05:32:58;;;;;;;3.75;1.60;;;9.30;99.90;;;;;;5031035;28;20433;-62
2021/10/23 05:35:24;;;;;;;9.32;1.70;;;9.10;99.90;;;;;;5032767;28;20498;-62
2021/10/23 05:37:50;;;;;;;12.23;2.75;;;9.20;99.90;;;;;;5064628;28;20455;-74
2021/10/23 05:40:16;;;;;;;3.20;1.40;;;9.20;99.90;;;;;;5033167;28;20136;-63
2021/10/23 05:42:42;;;;;;;6.32;1.80;;;9.20;99.90;;;;;;5032702;28;20102;-62
2021/10/23 05:45:08;;;;;;;5.55;1.83;;;9.20;99.90;;;;;;5030408;28;20131;-60
2021/10/23 05:47:34;;;;;;;4.28;1.90;;;9.10;99.90;;;;;;5032645;28;20022;-62
2021/10/23 05:50:00;;;;;;;6.85;2.33;;;9.00;99.90;;;;;;5030554;28;20037;-61
2021/10/23 05:52:26;;;;;;;5.70;2.30;;;8.90;99.90;;;;;;5032183;28;20498;-61
2021/10/23 05:54:51;;;;;;;4.88;2.10;;;8.90;99.90;;;;;;5029830;28;20068;-71
2021/10/23 05:57:17;;;;;;;7.00;2.78;;;8.70;99.90;;;;;;5063960;28;20045;-61
2021/10/23 05:59:45;;;;;;;7.35;2.38;;;8.70;99.90;;;;;;5030985;28;20034;-61
2021/10/23 06:02:26;;;;;;;7.43;3.72;;;8.70;99.90;;;;;;5063400;28;20259;-62
2021/10/23 06:04:56;;;;;;;10.35;2.58;;;8.60;99.90;;;;;;5030957;28;20030;-74
2021/10/23 06:07:24;;;;;;;5.35;2.13;;;8.60;99.90;;;;;;5047441;28;20153;-62
2021/10/23 06:09:50;;;;;;;7.40;2.65;;;8.70;99.90;;;;;;5063696;28;20029;-61
2021/10/23 06:12:16;;;;;;;7.85;2.67;;;8.70;99.90;;;;;;5031706;28;20026;-62
2021/10/23 06:14:42;;;;;;;6.10;2.90;;;8.70;99.90;;;;;;5031405;28;20112;-62
2021/10/23 06:17:08;;;;;;;7.60;2.92;;;8.80;99.90;;;;;;5030960;28;20025;-61
2021/10/23 06:19:36;;;;;;;10.10;2.60;;;8.80;99.90;;;;;;5031432;28;20077;-61
2021/10/23 06:22:02;;;;;;;11.65;2.53;;;8.80;99.90;;;;;;5030969;28;20132;-61
2021/10/23 06:24:28;;;;;;;6.57;2.65;;;8.90;99.90;;;;;;5030367;28;20075;-62
2021/10/23 06:26:54;;;;;;;8.07;3.00;;;8.90;99.90;;;;;;5029660;28;20391;-67
2021/10/23 06:29:20;;;;;;;12.18;2.83;;;8.90;99.90;;;;;;5031296;28;20087;-62
2021/10/23 06:31:45;;;;;;;15.35;3.42;;;9.00;99.90;;;;;;5031547;28;20025;-62
2021/10/23 06:34:11;;;;;;;15.65;3.72;;;9.10;99.90;;;;;;5031517;28;20452;-62
2021/10/23 06:36:37;;;;;;;15.15;3.67;;;9.20;99.90;;;;;;5032660;28;20037;-63
2021/10/23 06:39:02;;;;;;;10.02;3.35;;;9.20;99.90;;;;;;5039520;28;20040;-61
2021/10/23 06:41:29;;;;;;;13.60;2.85;;;9.20;99.90;;;;;;5032310;28;20585;-61
2021/10/23 06:43:55;;;;;;;5.75;2.80;;;9.30;99.90;;;;;;5049564;28;20339;-63
2021/10/23 06:46:23;;;;;;;6.55;2.65;;;9.20;99.90;;;;;;5051330;28;20040;-61
2021/10/23 06:48:49;;;;;;;5.68;2.53;;;9.20;99.90;;;;;;5049710;28;20534;-62
2021/10/23 06:51:15;;;;;;;7.53;2.42;;;9.30;99.90;;;;;;5050704;28;20033;-61
2021/10/23 06:53:41;;;;;;;5.07;2.85;;;9.20;99.90;;;;;;5051703;28;20021;-61
2021/10/23 06:56:06;;;;;;;6.22;2.53;;;9.20;99.90;;;;;;5048896;28;20040;-61
2021/10/23 06:58:32;;;;;;;6.18;2.60;;;9.30;99.90;;;;;;5051260;28;20119;-61
2021/10/23 07:00:58;;;;;;;5.22;2.20;;;9.40;99.90;;;;;;5050408;28;20359;-62
2021/10/23 07:03:23;;;;;;;7.07;2.67;;;9.20;99.90;;;;;;5051180;28;20376;-62
2021/10/23 07:05:49;;;;;;;8.85;2.72;;;9.40;99.90;;;;;;5049731;28;20029;-61
2021/10/23 07:08:14;;;;;;;7.53;3.05;;;9.40;99.90;;;;;;5050225;28;20486;-60
2021/10/23 07:10:40;;;;;;;9.85;3.42;;;9.40;99.90;;;;;;5049658;28;20115;-61
2021/10/23 07:13:06;;;;;;;12.45;3.08;;;9.30;99.90;;;;;;5048953;28;20025;-61
2021/10/23 07:15:32;;;;;;;5.43;3.08;;;9.20;99.90;;;;;;5051359;28;20031;-61
2021/10/23 07:17:58;;;;;;;9.40;3.20;;;9.20;99.90;;;;;;5050366;28;20025;-62
2021/10/23 07:20:25;;;;;;;6.90;3.65;;;9.50;99.90;;;;;;5049163;28;20029;-59
2021/10/23 07:22:51;;;;;;;6.75;3.10;;;9.50;99.90;;;;;;5047689;28;20049;-61
2021/10/23 07:25:17;;;;;;;7.57;3.25;;;9.50;99.90;;;;;;5047230;28;20123;-61
2021/10/23 07:27:43;;;;;;;9.82;3.03;;;9.50;99.90;;;;;;5046566;28;20198;-61
2021/10/23 07:30:09;;;;;;;7.63;3.17;;;9.60;99.90;;;;;;5044471;28;20025;-59
2021/10/23 07:32:36;;;;;;;8.15;3.17;;;9.70;99.90;;;;;;5045794;28;20079;-62
2021/10/23 07:35:02;;;;;;;5.72;3.13;;;9.60;99.90;;;;;;5049468;28;20033;-60
2021/10/23 07:37:28;;;;;;;5.38;2.40;;;9.60;99.90;;;;;;5051200;28;20044;-62
2021/10/23 07:39:54;;;;;;;5.57;2.72;;;9.60;99.90;;;;;;5050154;28;20026;-62
2021/10/23 07:42:20;;;;;;;5.28;3.63;;;9.60;99.90;;;;;;5050099;28;20087;-61
2021/10/23 07:44:45;;;;;;;9.73;3.40;;;9.50;99.90;;;;;;5049890;28;20485;-62
2021/10/23 07:47:12;;;;;;;7.90;3.05;;;9.70;99.90;;;;;;5048869;28;20021;-62
2021/10/23 07:49:39;;;;;;;7.53;3.13;;;9.70;99.90;;;;;;5048464;28;20033;-61
2021/10/23 07:52:05;;;;;;;4.60;2.63;;;9.70;99.90;;;;;;5049131;28;20028;-61
2021/10/23 07:54:31;;;;;;;5.07;3.13;;;9.70;99.90;;;;;;5049653;28;20393;-61
2021/10/23 07:56:58;;;;;;;9.90;3.53;;;9.70;99.90;;;;;;5049197;28;20032;-61
2021/10/23 07:59:26;;;;;;;7.28;3.17;;;9.80;99.90;;;;;;5049798;28;20033;-61
2021/10/23 08:02:00;;;;;;;6.25;2.60;;;10.10;99.90;;;;;;5049612;28;20033;-71
2021/10/23 08:04:26;;;;;;;10.20;2.90;;;10.00;99.90;;;;;;5028859;28;20030;-60
2021/10/23 08:06:52;;;;;;;7.05;3.20;;;10.00;99.90;;;;;;5049443;28;20029;-61
2021/10/23 08:09:17;;;;;;;4.97;3.13;;;10.20;99.90;;;;;;5046618;28;20021;-60
2021/10/23 08:11:44;;;;;;;5.53;2.72;;;10.40;99.90;;;;;;5050112;28;20056;-62
2021/10/23 08:14:11;;;;;;;9.00;3.25;;;10.30;99.90;;;;;;5047509;28;20087;-61
2021/10/23 08:16:37;;;;;;;8.23;3.83;;;10.30;99.90;;;;;;5035289;28;20116;-62
2021/10/23 08:19:03;;;;;;;7.10;3.33;;;10.50;99.90;;;;;;5031696;28;20060;-62
2021/10/23 08:21:30;;;;;;;10.98;3.60;;;10.20;99.90;;;;;;5034021;28;20022;-61
2021/10/23 08:23:55;;;;;;;3.88;2.83;;;10.30;99.90;;;;;;5041187;28;20031;-61
2021/10/23 08:26:21;;;;;;;8.88;2.80;;;10.50;99.90;;;;;;5047442;28;20053;-62
2021/10/23 08:28:47;;;;;;;5.75;3.25;;;10.80;99.90;;;;;;5051498;28;20083;-63
2021/10/23 08:31:13;;;;;;;8.48;3.42;;;11.20;99.90;;;;;;5035745;28;20029;-64
2021/10/23 08:33:38;;;;;;;4.18;3.05;;;11.70;99.90;;;;;;5050490;28;20044;-63
2021/10/23 08:36:04;;;;;;;6.70;2.83;;;12.00;99.90;;;;;;5051740;28;20040;-63
2021/10/23 08:38:30;;;;;;;12.93;4.13;;;12.30;99.90;;;;;;5052222;28;20032;-61
2021/10/23 08:40:56;;;;;;;7.65;2.75;;;12.20;99.90;;;;;;5051663;28;20028;-62
2021/10/23 08:43:24;;;;;;;4.95;2.80;;;11.90;99.90;;;;;;5050940;28;20108;-62
2021/10/23 08:45:55;;;;;;;7.13;3.20;;;12.00;99.90;;;;;;5031753;28;20478;-61
2021/10/23 08:48:22;;;;;;;5.47;3.08;;;12.10;99.90;;;;;;5047288;28;20050;-61
2021/10/23 08:50:48;;;;;;;7.55;2.35;;;12.80;99.90;;;;;;5052160;28;20528;-61
2021/10/23 08:53:14;;;;;;;3.20;2.83;;;13.00;99.90;;;;;;5051682;28;20072;-60
2021/10/23 08:55:40;;;;;;;7.78;3.00;;;12.90;99.90;;;;;;5050981;28;20044;-61
2021/10/23 08:58:09;;;;;;;7.15;3.00;;;12.80;99.90;;;;;;5050545;28;20041;-60
2021/10/23 09:00:35;;;;;;;8.05;3.33;;;12.60;99.90;;;;;;5051635;28;20086;-61
2021/10/23 09:03:01;;;;;;;7.45;3.38;;;12.80;99.90;;;;;;5049462;28;20037;-61
2021/10/23 09:05:27;;;;;;;10.20;4.38;;;12.50;99.90;;;;;;5051727;28;20044;-61
2021/10/23 09:07:53;;;;;;;7.88;3.58;;;12.30;99.90;;;;;;5051422;28;20033;-61
2021/10/23 09:10:28;;;;;;;5.00;2.72;;;12.30;99.90;;;;;;5052563;28;20025;-61
2021/10/23 09:13:12;;;;;;;7.22;2.83;;;12.30;99.90;;;;;;5052535;28;20528;-62
2021/10/23 09:15:42;;;;;;;7.13;2.85;;;12.20;99.90;;;;;;5051214;28;20055;-62
2021/10/23 09:18:09;;;;;;;6.85;2.35;;;12.40;99.90;;;;;;5045985;28;20049;-62
2021/10/23 09:20:42;;;;;;;11.75;2.75;;;12.50;99.90;;;;;;5049616;28;20100;-64
2021/10/23 09:23:19;;;;;;;8.95;2.78;;;12.70;99.90;;;;;;5050436;28;20071;-62
2021/10/23 09:25:51;;;;;;;7.20;3.15;;;12.80;99.90;;;;;;5048283;28;20088;-63
2021/10/23 09:28:27;;;;;;;8.32;2.90;;;12.80;99.90;;;;;;5032190;28;20079;-63
2021/10/23 09:30:53;;;;;;;6.40;2.50;;;12.90;99.90;;;;;;5038797;28;20389;-62
2021/10/23 09:33:25;;;;;;;8.63;3.85;;;12.70;99.90;;;;;;5051415;28;20452;-62
2021/10/23 09:35:57;;;;;;;8.82;2.13;;;12.60;99.90;;;;;;5051015;28;20041;-62
2021/10/23 09:38:31;;;;;;;6.50;2.33;;;12.90;99.90;;;;;;5050222;28;20494;-61
2021/10/23 09:41:13;;;;;;;8.75;2.95;;;13.40;99.90;;;;;;5050818;28;20063;-61
2021/10/23 09:43:39;;;;;;;8.45;4.00;;;13.70;99.90;;;;;;5051914;28;20164;-62
2021/10/23 09:46:13;;;;;;;6.78;2.50;;;14.00;99.90;;;;;;5050671;28;20501;-70
2021/10/23 09:48:45;;;;;;;11.73;2.97;;;14.10;99.90;;;;;;5050800;28;20028;-63
2021/10/23 09:51:20;;;;;;;10.25;3.50;;;14.10;99.90;;;;;;5051335;28;20049;-64
2021/10/23 09:54:03;;;;;;;7.88;2.10;;;14.30;99.90;;;;;;5050369;28;20035;-65
2021/10/23 09:56:30;;;;;;;9.55;2.22;;;13.80;99.90;;;;;;5049498;28;20140;-63
2021/10/23 09:59:08;;;;;;;4.93;2.20;;;13.70;99.90;;;;;;5050585;28;20037;-64
2021/10/23 10:01:42;;;;;;;8.38;2.30;;;13.50;99.90;;;;;;5050321;28;20044;-62
2021/10/23 10:04:13;;;;;;;5.45;2.13;;;13.70;99.90;;;;;;5044694;28;20124;-62
2021/10/23 10:06:41;;;;;;;5.15;1.63;;;14.00;99.90;;;;;;5049408;28;20032;-61
2021/10/23 10:09:08;;;;;;;5.97;2.38;;;14.40;99.90;;;;;;5031893;28;20025;-69
2021/10/23 10:11:35;;;;;;;5.32;1.83;;;14.20;99.90;;;;;;5048876;28;20055;-63
2021/10/23 10:14:01;;;;;;;6.90;1.77;;;14.50;99.90;;;;;;5050165;28;20036;-65
2021/10/23 10:16:29;;;;;;;5.20;1.63;;;15.50;99.90;;;;;;5048880;28;20182;-62
2021/10/23 10:18:56;;;;;;;4.03;1.35;;;15.70;99.90;;;;;;5050806;28;20024;-61
2021/10/23 10:21:22;;;;;;;8.13;1.98;;;15.50;99.90;;;;;;5049278;28;20020;-62
2021/10/23 10:23:51;;;;;;;5.53;1.48;;;15.60;99.90;;;;;;5050560;28;20423;-62
2021/10/23 10:26:28;;;;;;;9.30;1.67;;;16.00;99.90;;;;;;5047427;28;20115;-62
2021/10/23 10:29:07;;;;;;;4.90;1.58;;;16.10;99.90;;;;;;5045085;28;20048;-62
2021/10/23 10:32:26;;;;;;;3.97;1.73;;;16.30;99.90;;;;;;5047983;28;20056;-63
2021/10/23 10:35:10;;;;;;;6.63;1.70;;;15.80;99.90;;;;;;5045940;28;20041;-63
2021/10/23 10:37:55;;;;;;;5.43;1.85;;;15.90;99.90;;;;;;5048220;28;20104;-62
2021/10/23 10:42:59;;;;;;;6.05;1.70;;;15.80;99.90;;;;;;5049456;28;20025;-66
2021/10/23 10:45:36;;;;;;;6.53;2.22;;;15.30;99.90;;;;;;5047202;28;20029;-63
2021/10/23 10:48:12;;;;;;;7.28;1.98;;;15.20;99.90;;;;;;5044907;28;20028;-63
2021/10/23 10:50:42;;;;;;;10.00;2.08;;;15.00;99.90;;;;;;5050308;28;20029;-63
2021/10/23 10:53:29;;;;;;;5.50;1.70;;;14.60;99.90;;;;;;5048374;28;20021;-65
2021/10/23 10:56:07;;;;;;;17.63;2.45;;;14.30;99.90;;;;;;5050190;28;20037;-65
2021/10/23 10:58:43;;;;;;;9.25;1.60;;;14.30;99.90;;;;;;5049585;28;20029;-63
2021/10/23 11:01:17;;;;;;;7.20;2.00;;;14.20;99.90;;;;;;5049150;28;20074;-63
2021/10/23 11:03:52;;;;;;;6.80;2.15;;;14.30;99.90;;;;;;5048340;28;20505;-63
2021/10/23 11:06:45;;;;;;;9.15;1.90;;;14.00;99.90;;;;;;5047865;28;20029;-62
2021/10/23 11:09:20;;;;;;;5.85;1.85;;;14.10;99.90;;;;;;5047905;28;20478;-62
2021/10/23 11:11:47;;;;;;;9.10;1.90;;;14.10;99.90;;;;;;5048929;28;20032;-62
2021/10/23 11:16:56;;;;;;;7.88;2.28;;;14.20;99.90;;;;;;5049327;28;20033;-63
2021/10/23 11:19:27;;;;;;;7.45;1.90;;;14.70;99.90;;;;;;5050044;28;20087;-63
2021/10/23 11:22:00;;;;;;;7.25;2.08;;;14.40;99.90;;;;;;5049203;28;20385;-63
2021/10/23 11:24:28;;;;;;;6.22;2.08;;;14.20;99.90;;;;;;5045453;28;20037;-62
2021/10/23 11:26:54;;;;;;;7.10;1.77;;;14.50;99.90;;;;;;5036264;28;20077;-63
2021/10/23 11:29:23;;;;;;;6.47;1.88;;;14.60;99.90;;;;;;5046973;28;20024;-62
2021/10/23 11:31:49;;;;;;;5.20;1.30;;;14.10;99.90;;;;;;5049546;28;20048;-63
2021/10/23 11:34:30;;;;;;;4.40;2.25;;;14.20;99.90;;;;;;5043723;28;20132;-61
2021/10/23 11:37:06;;;;;;;3.67;1.42;;;14.90;99.90;;;;;;5047365;28;20033;-62
2021/10/23 11:39:36;;;;;;;4.00;1.48;;;15.50;99.90;;;;;;5048561;28;20083;-62
2021/10/23 11:42:19;;;;;;;10.50;2.92;;;15.50;99.90;;;;;;5050374;28;20017;-61
2021/10/23 11:44:45;;;;;;;7.40;2.80;;;15.30;99.90;;;;;;5048113;28;20042;-61
2021/10/23 11:47:28;;;;;;;4.97;2.08;;;15.00;99.90;;;;;;5046736;28;20430;-60
2021/10/23 11:49:59;;;;;;;5.00;1.88;;;15.10;99.90;;;;;;5030994;28;20115;-63
2021/10/23 11:52:33;;;;;;;7.22;2.10;;;15.30;99.90;;;;;;5019384;28;20045;-62
2021/10/23 11:55:03;;;;;;;5.75;1.50;;;15.50;99.90;;;;;;5041482;28;20131;-62
2021/10/23 11:57:42;;;;;;;5.53;1.58;;;15.50;99.90;;;;;;5051327;28;20307;-62
2021/10/23 12:00:15;;;;;;;4.78;1.38;;;15.60;99.90;;;;;;5030561;28;20139;-62
2021/10/23 12:03:03;;;;;;;6.75;1.85;;;15.90;99.90;;;;;;5031152;28;20483;-63
2021/10/23 12:05:49;;;;;;;4.25;1.50;;;15.70;99.10;;;;;;5026113;28;20547;-63
2021/10/23 12:08:29;;;;;;;8.57;2.28;;;15.20;99.60;;;;;;5049248;28;20028;-63
2021/10/23 12:11:26;;;;;;;6.82;2.00;;;15.10;99.90;;;;;;5034028;28;20144;-63
2021/10/23 12:14:08;;;;;;;7.63;1.83;;;15.00;99.90;;;;;;5017167;28;20119;-63
2021/10/23 12:16:39;;;;;;;;;;;14.90;99.90;;;;;;5032737;28;20056;-62
2021/10/23 12:19:20;;;;;;;7.75;2.40;;;14.80;99.90;;;;;;5042608;28;19916;-63
2021/10/23 12:21:54;;;;;;;9.20;1.73;;;14.70;99.90;;;;;;5034526;28;20501;-62
2021/10/23 12:24:37;;;;;;;5.53;1.80;;;14.60;99.90;;;;;;5033049;28;20028;-61
2021/10/23 12:27:22;;;;;;;8.23;3.33;;;14.70;99.90;;;;;;5050382;28;20095;-62
2021/10/23 12:29:56;;;;;;;6.35;2.28;;;14.80;99.90;;;;;;5033561;28;20064;-65
2021/10/23 12:32:36;;;;;;;5.25;2.25;;;14.90;99.60;;;;;;5049321;28;20414;-62
2021/10/23 12:35:24;;;;;;;6.35;1.92;;;14.90;99.50;;;;;;5034422;28;20149;-62
2021/10/23 12:37:54;;;;;;;12.10;2.17;;;14.90;99.70;;;;;;5052128;28;20033;-63
2021/10/23 12:40:31;;;;;;;6.05;1.98;;;14.80;99.70;;;;;;5052553;28;20452;-62
2021/10/23 12:43:05;;;;;;;5.93;1.77;;;14.60;99.90;;;;;;5051579;28;20347;-63
2021/10/23 12:45:38;;;;;;;4.78;1.08;;;14.80;99.80;;;;;;5050859;28;20114;-62
2021/10/23 12:48:07;;;;;;;11.95;1.92;;;14.70;99.00;;;;;;5050969;28;20108;-67
2021/10/23 12:50:34;;;;;;;4.18;1.13;;;14.70;99.20;;;;;;5051505;28;20095;-62
2021/10/23 12:53:00;;;;;;;4.25;1.55;;;14.80;99.30;;;;;;5050606;28;20036;-64
2021/10/23 12:55:26;;;;;;;8.98;1.70;;;14.90;99.10;;;;;;5051797;28;20045;-62
2021/10/23 12:57:53;;;;;;;4.18;1.42;;;14.80;98.40;;;;;;5051324;28;20051;-63
2021/10/23 13:00:19;;;;;;;8.77;2.10;;;14.90;98.50;;;;;;5049761;28;20025;-63